CPX431 Details

Departure: Louis Armstrong New Orleans International Airport (KMSY)
Arrival: Nashville International Airport (KBNA)
Route: LBY MEI IGB HRTUN CHSNE2


Current Weather Information
KMSY 251035Z 00000KT 10SM BKN015 OVC022 26/23 A3010 RMK AO2 T02560228
KBNA 250953Z 17004KT 8SM CLR 21/19 A3011 RMK AO2 SLP188 T02110189